Pembina, North Dakota
Current Conditions -  °F | °C
As of 12:14 PM on Thursday 18 Dec 2014 (Local Time) from KHCO Reporting Station
NA  
Wind Chill:   Ceiling: NA
Heat Index: 18°   Visibility: 10mi
Dew Point: 14°   Wind: 12mph
Humidity: 86%   Direction: 170°S
Pressure: 30.22"   Gusts: NA
Location:  48.97°N, 97.24°W
Report Text: KHCO 181814Z AUTO 17010KT 10SM M08/M10 A3022 RMK AO2
Loading
Personal Weather Stations






























Interactive Weather Map New forecast layout! Learn more

10-Day Weather Forecast

Advertisements
Track Severe Weather on mobile